createdAt,value
2023-02-21T11:29:47.676Z,23.16
2023-02-21T11:32:28.179Z,22.74
2023-02-21T11:35:03.678Z,21.26
2023-02-21T11:37:32.243Z,20.72
2023-02-21T11:40:00.916Z,20.90
2023-02-21T11:42:31.373Z,21.28
2023-02-21T11:45:18.517Z,20.26
2023-02-21T11:47:52.719Z,20.40
2023-02-21T11:50:26.980Z,20.01
2023-02-21T11:53:17.371Z,20.01
2023-02-21T11:56:14.176Z,19.64
2023-02-21T11:59:09.153Z,19.31
2023-02-21T12:02:21.827Z,19.60
2023-02-21T12:05:11.579Z,18.91
2023-02-21T12:08:08.878Z,19.22
2023-02-21T12:10:50.117Z,18.53
2023-02-21T12:13:40.233Z,18.64
2023-02-21T12:16:22.382Z,17.94
2023-02-21T12:19:20.372Z,19.07
2023-02-21T12:22:00.276Z,18.83
2023-02-21T12:24:39.112Z,19.01
2023-02-21T12:27:38.201Z,19.04
2023-02-21T12:30:07.528Z,19.87
2023-02-21T12:32:55.564Z,20.20
2023-02-21T12:35:27.408Z,19.73
2023-02-21T12:38:41.641Z,19.17
2023-02-21T12:41:30.142Z,19.89
2023-02-21T12:44:02.576Z,19.44
2023-02-21T12:46:32.276Z,19.37
2023-02-21T12:49:07.622Z,19.33
2023-02-21T12:51:39.324Z,19.18
2023-02-21T12:54:14.043Z,19.05
2023-02-21T12:56:58.297Z,19.67
2023-02-21T12:59:33.658Z,19.36
2023-02-21T13:02:10.933Z,19.05
2023-02-21T13:04:50.503Z,18.77
2023-02-21T13:07:45.746Z,19.78
2023-02-21T13:10:22.529Z,19.67
2023-02-21T13:13:03.260Z,19.99
2023-02-21T13:15:31.146Z,20.59
2023-02-21T13:18:06.114Z,19.93
2023-02-21T13:20:53.052Z,19.99
2023-02-21T13:23:57.216Z,19.44
2023-02-21T13:26:46.249Z,19.53
2023-02-21T13:29:23.427Z,19.95
2023-02-21T13:32:00.152Z,19.98
2023-02-21T13:34:31.339Z,18.94
2023-02-21T13:37:06.258Z,19.00
2023-02-21T13:39:37.453Z,19.05
2023-02-21T13:42:11.335Z,18.14
2023-02-21T13:44:43.380Z,19.30
2023-02-21T13:47:10.602Z,19.27
2023-02-21T13:49:44.387Z,18.34
2023-02-21T13:52:32.160Z,18.16
2023-02-21T13:55:17.857Z,17.94
2023-02-21T13:57:58.106Z,17.28
2023-02-21T14:00:24.611Z,16.65
2023-02-21T14:03:00.951Z,16.47
2023-02-21T14:05:50.159Z,17.02
2023-02-21T14:08:19.690Z,15.97
2023-02-21T14:10:49.695Z,15.99
2023-02-21T14:13:37.983Z,15.63
2023-02-21T14:16:07.563Z,16.30
2023-02-21T14:18:40.245Z,16.34
2023-02-21T14:21:10.559Z,15.67
2023-02-21T14:23:48.254Z,15.73
2023-02-21T14:26:33.489Z,15.34
2023-02-21T14:29:11.996Z,14.74
2023-02-21T14:32:16.798Z,15.13
2023-02-21T14:34:54.596Z,15.12
2023-02-21T14:37:30.871Z,14.29
2023-02-21T14:40:19.131Z,14.20
2023-02-21T14:43:15.354Z,14.42
2023-02-21T14:45:56.245Z,13.61
2023-02-21T14:48:40.995Z,13.78
2023-02-21T14:51:35.907Z,13.61
2023-02-21T14:54:24.296Z,12.90
2023-02-21T14:57:12.191Z,13.10
2023-02-21T15:00:06.882Z,12.99
2023-02-21T15:03:01.315Z,13.66
2023-02-21T15:05:38.287Z,13.59
2023-02-21T15:08:18.484Z,13.23
2023-02-21T15:10:47.765Z,13.21
2023-02-21T15:13:25.564Z,12.18
2023-02-21T15:16:05.345Z,13.26
2023-02-21T15:18:37.274Z,13.08
2023-02-21T15:21:09.963Z,12.33
2023-02-21T15:23:42.893Z,12.55
2023-02-21T15:26:24.595Z,12.44
2023-02-21T15:29:09.449Z,11.66
2023-02-21T15:31:55.070Z,12.11
2023-02-21T15:34:40.138Z,13.71
2023-02-21T15:37:20.115Z,12.53
2023-02-21T15:39:55.338Z,12.37
2023-02-21T15:42:23.600Z,12.17
2023-02-21T15:44:56.978Z,12.42
2023-02-21T15:47:26.982Z,12.08
2023-02-21T15:50:11.017Z,11.56
2023-02-21T15:52:51.391Z,10.95
2023-02-21T15:55:22.853Z,11.53
2023-02-21T15:57:59.210Z,11.70
2023-02-21T16:00:37.811Z,11.05
2023-02-21T16:03:41.932Z,10.60
2023-02-21T16:06:12.238Z,11.32
2023-02-21T16:08:58.788Z,10.45
2023-02-21T16:11:47.985Z,10.24
2023-02-21T16:14:46.649Z,10.27
2023-02-21T16:17:13.112Z,10.54
2023-02-21T16:19:47.908Z,9.74
2023-02-21T16:22:27.500Z,9.97
2023-02-21T16:25:12.155Z,9.86
2023-02-21T16:27:48.738Z,9.91
2023-02-21T16:30:19.868Z,9.59
2023-02-21T16:32:48.004Z,9.17
2023-02-21T16:35:21.202Z,9.19
2023-02-21T16:37:49.423Z,9.23
2023-02-21T16:40:22.424Z,9.31
2023-02-21T16:42:49.468Z,8.94
2023-02-21T16:45:16.031Z,9.16
2023-02-21T16:47:48.959Z,9.42
2023-02-21T16:50:22.326Z,9.02
2023-02-21T16:52:48.922Z,8.09
2023-02-21T16:55:17.684Z,8.54
2023-02-21T16:57:49.281Z,8.14
2023-02-21T17:00:20.546Z,8.26
2023-02-21T17:02:48.854Z,8.41
2023-02-21T17:05:16.952Z,8.27
2023-02-21T17:07:43.567Z,7.90
2023-02-21T17:10:11.534Z,7.77
2023-02-21T17:12:38.705Z,7.87
2023-02-21T17:15:05.728Z,7.60
2023-02-21T17:17:32.293Z,7.40
2023-02-21T17:19:58.883Z,7.20
2023-02-21T17:22:25.389Z,7.22
2023-02-21T17:24:51.888Z,7.01
2023-02-21T17:27:18.383Z,7.04
2023-02-21T17:29:47.426Z,6.75
2023-02-21T17:32:16.173Z,6.84
2023-02-21T17:34:43.357Z,6.85
2023-02-21T17:37:10.151Z,7.46
2023-02-21T17:39:37.199Z,6.79
2023-02-21T17:42:03.986Z,6.97
2023-02-21T17:44:30.511Z,6.61
2023-02-21T17:46:57.760Z,6.57
2023-02-21T17:49:27.497Z,6.60
2023-02-21T17:51:54.622Z,6.62
2023-02-21T17:54:23.783Z,6.95
2023-02-21T17:56:51.502Z,6.26
2023-02-21T17:59:18.800Z,5.80
2023-02-21T18:01:45.638Z,6.15
2023-02-21T18:04:13.666Z,6.05
2023-02-21T18:06:41.250Z,6.06
2023-02-21T18:09:08.032Z,6.00
2023-02-21T18:11:37.663Z,5.72
2023-02-21T18:14:05.125Z,5.86
2023-02-21T18:16:32.049Z,5.51
2023-02-21T18:18:59.083Z,5.39
2023-02-21T18:21:27.337Z,5.69
2023-02-21T18:23:54.268Z,5.62
2023-02-21T18:26:20.870Z,5.68
2023-02-21T18:28:47.415Z,5.56
2023-02-21T18:31:18.810Z,5.43
2023-02-21T18:33:45.866Z,5.53
2023-02-21T18:36:12.539Z,5.29
2023-02-21T18:38:40.708Z,5.17
2023-02-21T18:41:16.753Z,5.26
2023-02-21T18:43:44.085Z,5.30
2023-02-21T18:46:12.891Z,5.35
2023-02-21T18:48:43.298Z,5.14
2023-02-21T18:51:11.652Z,4.79
2023-02-21T18:53:39.028Z,5.31
2023-02-21T18:56:13.290Z,5.10
2023-02-21T18:58:39.932Z,5.10
2023-02-21T19:01:08.256Z,5.15
2023-02-21T19:03:35.832Z,5.00
2023-02-21T19:06:02.370Z,5.22
2023-02-21T19:08:28.862Z,4.75
2023-02-21T19:10:55.447Z,4.89
2023-02-21T19:13:22.023Z,4.81
2023-02-21T19:15:48.610Z,4.74
2023-02-21T19:18:16.776Z,4.75
2023-02-21T19:20:43.737Z,4.91
2023-02-21T19:23:10.710Z,4.81
2023-02-21T19:25:37.465Z,4.65
2023-02-21T19:28:06.675Z,4.50
2023-02-21T19:30:36.828Z,4.72
2023-02-21T19:33:07.971Z,4.67
2023-02-21T19:35:36.040Z,4.90
2023-02-21T19:38:05.858Z,4.62
2023-02-21T19:40:32.880Z,4.64
2023-02-21T19:42:59.470Z,4.90
2023-02-21T19:45:26.101Z,4.57
2023-02-21T19:47:52.678Z,4.74
2023-02-21T19:50:19.505Z,4.69
2023-02-21T19:52:56.222Z,4.35
2023-02-21T19:55:23.228Z,4.72
2023-02-21T19:57:49.807Z,4.42
2023-02-21T20:00:16.923Z,4.42
2023-02-21T20:02:46.502Z,4.34
2023-02-21T20:05:17.218Z,4.47
2023-02-21T20:07:43.991Z,4.41
2023-02-21T20:10:12.635Z,4.25
2023-02-21T20:12:39.172Z,4.64
2023-02-21T20:15:07.322Z,4.38
2023-02-21T20:17:37.642Z,4.37
2023-02-21T20:20:07.031Z,4.55
2023-02-21T20:22:33.979Z,4.56
2023-02-21T20:25:01.486Z,4.37
2023-02-21T20:27:28.070Z,4.53
2023-02-21T20:29:54.646Z,4.65
2023-02-21T20:32:21.298Z,4.63
2023-02-21T20:34:47.973Z,4.53
2023-02-21T20:37:15.357Z,4.63
2023-02-21T20:39:41.896Z,4.48
2023-02-21T20:42:08.476Z,4.55
2023-02-21T20:44:38.127Z,4.77
2023-02-21T20:47:05.810Z,4.66
2023-02-21T20:49:35.096Z,4.62
2023-02-21T20:52:02.740Z,4.50
2023-02-21T20:54:29.523Z,4.45
2023-02-21T20:56:57.590Z,4.74
2023-02-21T20:59:30.629Z,4.43
2023-02-21T21:01:58.409Z,4.62
2023-02-21T21:04:31.547Z,4.88
2023-02-21T21:07:01.669Z,4.89
2023-02-21T21:09:34.423Z,4.73
2023-02-21T21:12:09.013Z,5.11
2023-02-21T21:14:41.432Z,5.04
2023-02-21T21:17:09.152Z,5.07
2023-02-21T21:19:36.792Z,5.08
2023-02-21T21:22:05.868Z,4.96
2023-02-21T21:24:32.756Z,5.13
2023-02-21T21:27:06.244Z,4.80
2023-02-21T21:29:36.251Z,5.21
2023-02-21T21:32:05.185Z,5.45
2023-02-21T21:34:33.085Z,5.44
2023-02-21T21:37:02.230Z,5.10
2023-02-21T21:39:31.386Z,5.45
2023-02-21T21:42:02.824Z,5.48
